PWSweather.com
Personal Weather Stations
Station Observations
K4FB1
Clubhouse Heritage, Lakeland, FL 33812

Clubhouse HeritageLakeland, FL 33812

Lat: 27.969224, Lon: -81.897769

Elevation: 145

Station Type: Davis Vantage Pro2

http://www.ClubhouseWX.com

High Low Average
Temperature 67.1°F19.5°C 42.0°F5.6°C 52.5°F11.4°C
Dew Point 40.2°F4.6°C 27.3°F-2.6°C 35.1°F1.7°C
Winds 8.0 mph 12.9 kmh Calm Calm 4.0 mph SSW6.4 kmh SSW
Wind Gusts 19.0 mph30.6 kmh -- 9.0 mph14.5 kmh
Humidity 72% 26% 54%
Pressure 30.36 in1028.1 mb 30.22 in1023.4 mb -
Precipitation 0.00 in0.0 mm - -
Hour Temp Dew Point Humidity Winds Wind Gusts Pressure Precip Precip Rate Daily Precip Total
12:00 AM 50.8°F10.4°C 7.5°F-13.6°C 17% 4.0 mph NNW6.4 kmh NNW 8.0 mph12.9 kmh 30.22 in1023.4 mb 0.00 in0.0 mm 0.00 in0.0 mm 0.57 in14.5 mm
12:05 AM 50.8°F10.4°C 8.7°F-12.9°C 18% 5.0 mph NNW8.0 kmh NNW 9.0 mph14.5 kmh 30.22 in1023.4 mb 0.00 in0.0 mm 0.00 in0.0 mm 0.57 in14.5 mm
12:10 AM 50.8°F10.4°C 9.9°F-12.3°C 19% 4.0 mph NW6.4 kmh NW 9.0 mph14.5 kmh 30.22 in1023.4 mb 0.00 in0.0 mm 0.00 in0.0 mm 0.57 in14.5 mm
12:15 AM 50.8°F10.4°C 11.1°F-11.6°C 20% 3.0 mph NW4.8 kmh NW 8.0 mph12.9 kmh 30.21 in1023.0 mb 0.00 in0.0 mm 0.00 in0.0 mm 0.57 in14.5 mm
12:20 AM 50.8°F10.4°C 12.2°F-11.0°C 21% 3.0 mph NNW4.8 kmh NNW 8.0 mph12.9 kmh 30.21 in1023.0 mb 0.00 in0.0 mm 0.00 in0.0 mm 0.57 in14.5 mm
12:25 AM 50.8°F10.4°C 15.2°F-9.3°C 24% 3.0 mph NNW4.8 kmh NNW 8.0 mph12.9 kmh 30.22 in1023.4 mb 0.00 in0.0 mm 0.00 in0.0 mm 0.57 in14.5 mm
12:30 AM 50.8°F10.4°C 18.0°F-7.8°C 27% 4.0 mph NW6.4 kmh NW 8.0 mph12.9 kmh 30.22 in1023.4 mb 0.00 in0.0 mm 0.00 in0.0 mm 0.57 in14.5 mm
12:35 AM 50.9°F10.5°C 19.7°F-6.8°C 29% 4.0 mph NW6.4 kmh NW 8.0 mph12.9 kmh 30.21 in1023.0 mb 0.00 in0.0 mm 0.00 in0.0 mm 0.57 in14.5 mm
12:40 AM 50.9°F10.5°C 20.5°F-6.4°C 30% 4.0 mph NW6.4 kmh NW 7.0 mph11.3 kmh 30.21 in1023.0 mb 0.00 in0.0 mm 0.00 in0.0 mm 0.57 in14.5 mm
12:45 AM 50.9°F10.5°C 24.2°F-4.3°C 35% 3.0 mph NW4.8 kmh NW 7.0 mph11.3 kmh 30.22 in1023.4 mb 0.00 in0.0 mm 0.00 in0.0 mm 0.57 in14.5 mm
12:50 AM 50.9°F10.5°C 24.2°F-4.3°C 35% 3.0 mph NW4.8 kmh NW 6.0 mph9.7 kmh 30.22 in1023.4 mb 0.00 in0.0 mm 0.00 in0.0 mm 0.57 in14.5 mm
12:55 AM 50.9°F10.5°C 26.8°F-2.9°C 39% 3.0 mph NW4.8 kmh NW 7.0 mph11.3 kmh 30.22 in1023.4 mb 0.00 in0.0 mm 0.00 in0.0 mm 0.57 in14.5 mm
01:00 AM 51.0°F10.6°C 28.1°F-2.2°C 41% 3.0 mph NW4.8 kmh NW 7.0 mph11.3 kmh 30.22 in1023.4 mb 0.00 in0.0 mm 0.00 in0.0 mm 0.00 in0.0 mm
01:05 AM 51.0°F10.6°C 29.3°F-1.5°C 43% 3.0 mph NW4.8 kmh NW 6.0 mph9.7 kmh 30.22 in1023.4 mb 0.00 in0.0 mm 0.00 in0.0 mm 0.00 in0.0 mm
01:10 AM 51.1°F10.6°C 31.0°F-0.6°C 46% 4.0 mph NW6.4 kmh NW 9.0 mph14.5 kmh 30.22 in1023.4 mb 0.00 in0.0 mm 0.00 in0.0 mm 0.00 in0.0 mm
01:15 AM 51.2°F10.7°C 31.6°F-0.2°C 47% 4.0 mph NW6.4 kmh NW 9.0 mph14.5 kmh 30.22 in1023.4 mb 0.00 in0.0 mm 0.00 in0.0 mm 0.00 in0.0 mm
01:20 AM 51.2°F10.7°C 31.6°F-0.2°C 47% 4.0 mph NW6.4 kmh NW 8.0 mph12.9 kmh 30.22 in1023.4 mb 0.00 in0.0 mm 0.00 in0.0 mm 0.00 in0.0 mm
01:25 AM 51.2°F10.7°C 31.6°F-0.2°C 47% 4.0 mph NW6.4 kmh NW 8.0 mph12.9 kmh 30.23 in1023.7 mb 0.00 in0.0 mm 0.00 in0.0 mm 0.00 in0.0 mm
01:30 AM 51.1°F10.6°C 30.5°F-0.8°C 45% 4.0 mph NW6.4 kmh NW 9.0 mph14.5 kmh 30.23 in1023.7 mb 0.00 in0.0 mm 0.00 in0.0 mm 0.00 in0.0 mm
01:35 AM 51.0°F10.6°C 29.3°F-1.5°C 43% 4.0 mph NW6.4 kmh NW 9.0 mph14.5 kmh 30.23 in1023.7 mb 0.00 in0.0 mm 0.00 in0.0 mm 0.00 in0.0 mm
01:40 AM 50.8°F10.4°C 27.3°F-2.6°C 40% 3.0 mph NW4.8 kmh NW 7.0 mph11.3 kmh 30.23 in1023.7 mb 0.00 in0.0 mm 0.00 in0.0 mm 0.00 in0.0 mm
01:45 AM 50.6°F10.3°C 27.7°F-2.4°C 41% 4.0 mph NW6.4 kmh NW 7.0 mph11.3 kmh 30.23 in1023.7 mb 0.00 in0.0 mm 0.00 in0.0 mm 0.00 in0.0 mm
01:50 AM 50.6°F10.3°C 35.9°F2.2°C 57% 5.0 mph NNW8.0 kmh NNW 13.0 mph20.9 kmh 30.23 in1023.7 mb 0.00 in0.0 mm 0.00 in0.0 mm 0.00 in0.0 mm
01:55 AM 50.6°F10.3°C 37.6°F3.1°C 61% 6.0 mph NNW9.7 kmh NNW 13.0 mph20.9 kmh 30.23 in1023.7 mb 0.00 in0.0 mm 0.00 in0.0 mm 0.00 in0.0 mm
02:00 AM 50.5°F10.3°C 38.4°F3.6°C 63% 6.0 mph NNW9.7 kmh NNW 13.0 mph20.9 kmh 30.24 in1024.0 mb 0.00 in0.0 mm 0.00 in0.0 mm 0.00 in0.0 mm
02:05 AM 50.4°F10.2°C 38.7°F3.7°C 64% 5.0 mph NNW8.0 kmh NNW 13.0 mph20.9 kmh 30.24 in1024.0 mb 0.00 in0.0 mm 0.00 in0.0 mm 0.00 in0.0 mm
02:10 AM 50.1°F10.1°C 39.6°F4.2°C 67% 5.0 mph N8.0 kmh N 9.0 mph14.5 kmh 30.23 in1023.7 mb 0.00 in0.0 mm 0.00 in0.0 mm 0.00 in0.0 mm
02:15 AM 50.0°F10.0°C 39.8°F4.3°C 68% 5.0 mph N8.0 kmh N 11.0 mph17.7 kmh 30.23 in1023.7 mb 0.00 in0.0 mm 0.00 in0.0 mm 0.00 in0.0 mm
02:20 AM 49.9°F9.9°C 40.1°F4.5°C 69% 5.0 mph NNW8.0 kmh NNW 11.0 mph17.7 kmh 30.24 in1024.0 mb 0.00 in0.0 mm 0.00 in0.0 mm 0.00 in0.0 mm
02:25 AM 49.8°F9.9°C 40.0°F4.4°C 69% 6.0 mph NNW9.7 kmh NNW 12.0 mph19.3 kmh 30.24 in1024.0 mb 0.00 in0.0 mm 0.00 in0.0 mm 0.00 in0.0 mm
02:30 AM 49.6°F9.8°C 40.2°F4.6°C 70% 6.0 mph NNW9.7 kmh NNW 15.0 mph24.1 kmh 30.23 in1023.7 mb 0.00 in0.0 mm 0.00 in0.0 mm 0.00 in0.0 mm
02:35 AM 49.6°F9.8°C 40.2°F4.6°C 70% 7.0 mph NNW11.3 kmh NNW 15.0 mph24.1 kmh 30.24 in1024.0 mb 0.00 in0.0 mm 0.00 in0.0 mm 0.00 in0.0 mm
02:40 AM 49.6°F9.8°C 40.2°F4.6°C 70% 6.0 mph N9.7 kmh N 13.0 mph20.9 kmh 30.24 in1024.0 mb 0.00 in0.0 mm 0.00 in0.0 mm 0.00 in0.0 mm
02:45 AM 49.4°F9.7°C 40.0°F4.4°C 70% 5.0 mph N8.0 kmh N 11.0 mph17.7 kmh 30.24 in1024.0 mb 0.00 in0.0 mm 0.00 in0.0 mm 0.00 in0.0 mm
02:50 AM 49.2°F9.6°C 39.8°F4.3°C 70% 5.0 mph NNW8.0 kmh NNW 11.0 mph17.7 kmh 30.24 in1024.0 mb 0.00 in0.0 mm 0.00 in0.0 mm 0.00 in0.0 mm
02:55 AM 49.1°F9.5°C 39.7°F4.3°C 70% 5.0 mph NNW8.0 kmh NNW 10.0 mph16.1 kmh 30.24 in1024.0 mb 0.00 in0.0 mm 0.00 in0.0 mm 0.00 in0.0 mm
03:00 AM 49.0°F9.4°C 39.6°F4.2°C 70% 5.0 mph N8.0 kmh N 10.0 mph16.1 kmh 30.24 in1024.0 mb 0.00 in0.0 mm 0.00 in0.0 mm 0.00 in0.0 mm
03:05 AM 48.8°F9.3°C 39.4°F4.1°C 70% 4.0 mph N6.4 kmh N 10.0 mph16.1 kmh 30.23 in1023.7 mb 0.00 in0.0 mm 0.00 in0.0 mm 0.00 in0.0 mm
03:10 AM 48.7°F9.3°C 39.4°F4.1°C 70% 4.0 mph NNW6.4 kmh NNW 8.0 mph12.9 kmh 30.24 in1024.0 mb 0.00 in0.0 mm 0.00 in0.0 mm 0.00 in0.0 mm
03:15 AM 48.5°F9.2°C 39.2°F4.0°C 70% 4.0 mph NNW6.4 kmh NNW 8.0 mph12.9 kmh 30.23 in1023.7 mb 0.00 in0.0 mm 0.00 in0.0 mm 0.00 in0.0 mm
03:20 AM 48.3°F9.1°C 39.0°F3.9°C 70% 4.0 mph NNW6.4 kmh NNW 8.0 mph12.9 kmh 30.23 in1023.7 mb 0.00 in0.0 mm 0.00 in0.0 mm 0.00 in0.0 mm
03:25 AM 48.2°F9.0°C 38.9°F3.8°C 70% 4.0 mph NNW6.4 kmh NNW 8.0 mph12.9 kmh 30.23 in1023.7 mb 0.00 in0.0 mm 0.00 in0.0 mm 0.00 in0.0 mm
03:30 AM 48.1°F8.9°C 38.8°F3.8°C 70% 3.0 mph NNW4.8 kmh NNW 7.0 mph11.3 kmh 30.23 in1023.7 mb 0.00 in0.0 mm 0.00 in0.0 mm 0.00 in0.0 mm
03:35 AM 47.9°F8.8°C 38.6°F3.7°C 70% 3.0 mph NNW4.8 kmh NNW 10.0 mph16.1 kmh 30.23 in1023.7 mb 0.00 in0.0 mm 0.00 in0.0 mm 0.00 in0.0 mm
03:40 AM 47.8°F8.8°C 38.5°F3.6°C 70% 4.0 mph NNW6.4 kmh NNW 10.0 mph16.1 kmh 30.23 in1023.7 mb 0.00 in0.0 mm 0.00 in0.0 mm 0.00 in0.0 mm
03:45 AM 47.7°F8.7°C 38.4°F3.6°C 70% 4.0 mph NNW6.4 kmh NNW 8.0 mph12.9 kmh 30.23 in1023.7 mb 0.00 in0.0 mm 0.00 in0.0 mm 0.00 in0.0 mm
03:50 AM 47.5°F8.6°C 38.2°F3.4°C 70% 4.0 mph NNW6.4 kmh NNW 9.0 mph14.5 kmh 30.23 in1023.7 mb 0.00 in0.0 mm 0.00 in0.0 mm 0.00 in0.0 mm
03:55 AM 47.5°F8.6°C 38.2°F3.4°C 70% 4.0 mph N6.4 kmh N 9.0 mph14.5 kmh 30.23 in1023.7 mb 0.00 in0.0 mm 0.00 in0.0 mm 0.00 in0.0 mm
04:00 AM 47.4°F8.6°C 37.7°F3.2°C 69% 5.0 mph N8.0 kmh N 10.0 mph16.1 kmh 30.23 in1023.7 mb 0.00 in0.0 mm 0.00 in0.0 mm 0.00 in0.0 mm
04:05 AM 47.3°F8.5°C 37.6°F3.1°C 69% 5.0 mph NNW8.0 kmh NNW 11.0 mph17.7 kmh 30.23 in1023.7 mb 0.00 in0.0 mm 0.00 in0.0 mm 0.00 in0.0 mm
04:10 AM 47.3°F8.5°C 37.3°F2.9°C 68% 5.0 mph NNW8.0 kmh NNW 13.0 mph20.9 kmh 30.23 in1023.7 mb 0.00 in0.0 mm 0.00 in0.0 mm 0.00 in0.0 mm
04:15 AM 47.4°F8.6°C 37.4°F3.0°C 68% 6.0 mph NNW9.7 kmh NNW 13.0 mph20.9 kmh 30.23 in1023.7 mb 0.00 in0.0 mm 0.00 in0.0 mm 0.00 in0.0 mm
04:20 AM 47.3°F8.5°C 37.3°F2.9°C 68% 6.0 mph NNW9.7 kmh NNW 11.0 mph17.7 kmh 30.23 in1023.7 mb 0.00 in0.0 mm 0.00 in0.0 mm 0.00 in0.0 mm
04:25 AM 47.3°F8.5°C 37.3°F2.9°C 68% 6.0 mph NNW9.7 kmh NNW 14.0 mph22.5 kmh 30.23 in1023.7 mb 0.00 in0.0 mm 0.00 in0.0 mm 0.00 in0.0 mm
04:30 AM 47.3°F8.5°C 37.3°F2.9°C 68% 7.0 mph NNW11.3 kmh NNW 15.0 mph24.1 kmh 30.24 in1024.0 mb 0.00 in0.0 mm 0.00 in0.0 mm 0.00 in0.0 mm
04:35 AM 47.2°F8.4°C 37.5°F3.1°C 69% 7.0 mph NNW11.3 kmh NNW 15.0 mph24.1 kmh 30.24 in1024.0 mb 0.00 in0.0 mm 0.00 in0.0 mm 0.00 in0.0 mm
04:40 AM 47.1°F8.4°C 37.4°F3.0°C 69% 7.0 mph NNW11.3 kmh NNW 15.0 mph24.1 kmh 30.24 in1024.0 mb 0.00 in0.0 mm 0.00 in0.0 mm 0.00 in0.0 mm
04:45 AM 47.0°F8.3°C 37.0°F2.8°C 68% 7.0 mph NNW11.3 kmh NNW 15.0 mph24.1 kmh 30.24 in1024.0 mb 0.00 in0.0 mm 0.00 in0.0 mm 0.00 in0.0 mm
04:50 AM 47.0°F8.3°C 36.6°F2.6°C 67% 7.0 mph NNW11.3 kmh NNW 13.0 mph20.9 kmh 30.24 in1024.0 mb 0.00 in0.0 mm 0.00 in0.0 mm 0.00 in0.0 mm
04:55 AM 46.9°F8.3°C 36.9°F2.7°C 68% 6.0 mph NNW9.7 kmh NNW 12.0 mph19.3 kmh 30.24 in1024.0 mb 0.00 in0.0 mm 0.00 in0.0 mm 0.00 in0.0 mm
05:00 AM 46.8°F8.2°C 36.8°F2.7°C 68% 6.0 mph NNW9.7 kmh NNW 13.0 mph20.9 kmh 30.25 in1024.4 mb 0.00 in0.0 mm 0.00 in0.0 mm 0.00 in0.0 mm
05:05 AM 46.7°F8.2°C 36.3°F2.4°C 67% 8.0 mph NNW12.9 kmh NNW 17.0 mph27.4 kmh 30.25 in1024.4 mb 0.00 in0.0 mm 0.00 in0.0 mm 0.00 in0.0 mm
05:10 AM 46.6°F8.1°C 36.2°F2.3°C 67% 7.0 mph NNW11.3 kmh NNW 17.0 mph27.4 kmh 30.25 in1024.4 mb 0.00 in0.0 mm 0.00 in0.0 mm 0.00 in0.0 mm
05:15 AM 46.4°F8.0°C 36.0°F2.2°C 67% 6.0 mph NNW9.7 kmh NNW 15.0 mph24.1 kmh 30.25 in1024.4 mb 0.00 in0.0 mm 0.00 in0.0 mm 0.00 in0.0 mm
05:20 AM 46.3°F7.9°C 35.9°F2.2°C 67% 7.0 mph NNW11.3 kmh NNW 15.0 mph24.1 kmh 30.25 in1024.4 mb 0.00 in0.0 mm 0.00 in0.0 mm 0.00 in0.0 mm
05:25 AM 46.1°F7.8°C 35.4°F1.9°C 66% 6.0 mph NNW9.7 kmh NNW 14.0 mph22.5 kmh 30.25 in1024.4 mb 0.00 in0.0 mm 0.00 in0.0 mm 0.00 in0.0 mm
05:30 AM 46.0°F7.8°C 35.3°F1.8°C 66% 7.0 mph NNW11.3 kmh NNW 13.0 mph20.9 kmh 30.26 in1024.7 mb 0.00 in0.0 mm 0.00 in0.0 mm 0.00 in0.0 mm
05:35 AM 45.9°F7.7°C 35.6°F2.0°C 67% 7.0 mph NNW11.3 kmh NNW 13.0 mph20.9 kmh 30.26 in1024.7 mb 0.00 in0.0 mm 0.00 in0.0 mm 0.00 in0.0 mm
05:40 AM 45.7°F7.6°C 35.4°F1.9°C 67% 7.0 mph NNW11.3 kmh NNW 12.0 mph19.3 kmh 30.26 in1024.7 mb 0.00 in0.0 mm 0.00 in0.0 mm 0.00 in0.0 mm
05:45 AM 45.6°F7.6°C 35.6°F2.0°C 68% 6.0 mph NNW9.7 kmh NNW 12.0 mph19.3 kmh 30.26 in1024.7 mb 0.00 in0.0 mm 0.00 in0.0 mm 0.00 in0.0 mm
05:50 AM 45.4°F7.4°C 35.5°F1.9°C 68% 7.0 mph NNW11.3 kmh NNW 15.0 mph24.1 kmh 30.26 in1024.7 mb 0.00 in0.0 mm 0.00 in0.0 mm 0.00 in0.0 mm
05:55 AM 45.2°F7.3°C 35.3°F1.8°C 68% 7.0 mph NNW11.3 kmh NNW 15.0 mph24.1 kmh 30.26 in1024.7 mb 0.00 in0.0 mm 0.00 in0.0 mm 0.00 in0.0 mm
06:00 AM 45.0°F7.2°C 35.1°F1.7°C 68% 7.0 mph NNW11.3 kmh NNW 17.0 mph27.4 kmh 30.27 in1025.1 mb 0.00 in0.0 mm 0.00 in0.0 mm 0.00 in0.0 mm
06:05 AM 44.9°F7.2°C 35.0°F1.7°C 68% 6.0 mph NNW9.7 kmh NNW 17.0 mph27.4 kmh 30.27 in1025.1 mb 0.00 in0.0 mm 0.00 in0.0 mm 0.00 in0.0 mm
06:10 AM 44.8°F7.1°C 35.2°F1.8°C 69% 6.0 mph NNW9.7 kmh NNW 13.0 mph20.9 kmh 30.27 in1025.1 mb 0.00 in0.0 mm 0.00 in0.0 mm 0.00 in0.0 mm
06:15 AM 44.6°F7.0°C 35.1°F1.7°C 69% 5.0 mph NNW8.0 kmh NNW 13.0 mph20.9 kmh 30.27 in1025.1 mb 0.00 in0.0 mm 0.00 in0.0 mm 0.00 in0.0 mm
06:20 AM 44.4°F6.9°C 34.9°F1.6°C 69% 4.0 mph NNW6.4 kmh NNW 10.0 mph16.1 kmh 30.27 in1025.1 mb 0.00 in0.0 mm 0.00 in0.0 mm 0.00 in0.0 mm
06:25 AM 44.2°F6.8°C 34.7°F1.5°C 69% 4.0 mph N6.4 kmh N 9.0 mph14.5 kmh 30.27 in1025.1 mb 0.00 in0.0 mm 0.00 in0.0 mm 0.00 in0.0 mm
06:30 AM 44.1°F6.7°C 34.9°F1.6°C 70% 4.0 mph N6.4 kmh N 9.0 mph14.5 kmh 30.27 in1025.1 mb 0.00 in0.0 mm 0.00 in0.0 mm 0.00 in0.0 mm
06:35 AM 43.9°F6.6°C 34.4°F1.3°C 69% 4.0 mph N6.4 kmh N 10.0 mph16.1 kmh 30.27 in1025.1 mb 0.00 in0.0 mm 0.00 in0.0 mm 0.00 in0.0 mm
06:40 AM 43.8°F6.6°C 34.3°F1.3°C 69% 4.0 mph N6.4 kmh N 10.0 mph16.1 kmh 30.27 in1025.1 mb 0.00 in0.0 mm 0.00 in0.0 mm 0.00 in0.0 mm
06:45 AM 43.7°F6.5°C 34.2°F1.2°C 69% 5.0 mph N8.0 kmh N 12.0 mph19.3 kmh 30.28 in1025.4 mb 0.00 in0.0 mm 0.00 in0.0 mm 0.00 in0.0 mm
06:50 AM 43.5°F6.4°C 34.0°F1.1°C 69% 5.0 mph N8.0 kmh N 12.0 mph19.3 kmh 30.28 in1025.4 mb 0.00 in0.0 mm 0.00 in0.0 mm 0.00 in0.0 mm
06:55 AM 43.4°F6.3°C 33.9°F1.1°C 69% 5.0 mph N8.0 kmh N 11.0 mph17.7 kmh 30.28 in1025.4 mb 0.00 in0.0 mm 0.00 in0.0 mm 0.00 in0.0 mm
07:00 AM 43.3°F6.3°C 33.8°F1.0°C 69% 5.0 mph N8.0 kmh N 10.0 mph16.1 kmh 30.28 in1025.4 mb 0.00 in0.0 mm 0.00 in0.0 mm 0.00 in0.0 mm
07:05 AM 43.2°F6.2°C 33.7°F0.9°C 69% 4.0 mph N6.4 kmh N 8.0 mph12.9 kmh 30.28 in1025.4 mb 0.00 in0.0 mm 0.00 in0.0 mm 0.00 in0.0 mm
07:10 AM 43.1°F6.2°C 34.0°F1.1°C 70% 4.0 mph N6.4 kmh N 7.0 mph11.3 kmh 30.28 in1025.4 mb 0.00 in0.0 mm 0.00 in0.0 mm 0.00 in0.0 mm
07:15 AM 42.9°F6.1°C 33.4°F0.8°C 69% 4.0 mph N6.4 kmh N 12.0 mph19.3 kmh 30.29 in1025.7 mb 0.00 in0.0 mm 0.00 in0.0 mm 0.00 in0.0 mm
07:20 AM 42.8°F6.0°C 33.3°F0.7°C 69% 5.0 mph N8.0 kmh N 12.0 mph19.3 kmh 30.29 in1025.7 mb 0.00 in0.0 mm 0.00 in0.0 mm 0.00 in0.0 mm
07:25 AM 42.8°F6.0°C 33.3°F0.7°C 69% 5.0 mph N8.0 kmh N 12.0 mph19.3 kmh 30.29 in1025.7 mb 0.00 in0.0 mm 0.00 in0.0 mm 0.00 in0.0 mm
07:30 AM 42.7°F5.9°C 33.2°F0.7°C 69% 5.0 mph N8.0 kmh N 11.0 mph17.7 kmh 30.29 in1025.7 mb 0.00 in0.0 mm 0.00 in0.0 mm 0.00 in0.0 mm
07:35 AM 42.6°F5.9°C 33.1°F0.6°C 69% 5.0 mph N8.0 kmh N 11.0 mph17.7 kmh 30.29 in1025.7 mb 0.00 in0.0 mm 0.00 in0.0 mm 0.00 in0.0 mm
07:40 AM 42.5°F5.8°C 33.0°F0.6°C 69% 5.0 mph N8.0 kmh N 10.0 mph16.1 kmh 30.29 in1025.7 mb 0.00 in0.0 mm 0.00 in0.0 mm 0.00 in0.0 mm
07:45 AM 42.4°F5.8°C 32.9°F0.5°C 69% 5.0 mph N8.0 kmh N 11.0 mph17.7 kmh 30.29 in1025.7 mb 0.00 in0.0 mm 0.00 in0.0 mm 0.00 in0.0 mm
07:50 AM 42.3°F5.7°C 32.8°F0.4°C 69% 5.0 mph N8.0 kmh N 11.0 mph17.7 kmh 30.29 in1025.7 mb 0.00 in0.0 mm 0.00 in0.0 mm 0.00 in0.0 mm
07:55 AM 42.2°F5.7°C 32.8°F0.4°C 69% 4.0 mph N6.4 kmh N 10.0 mph16.1 kmh 30.29 in1025.7 mb 0.00 in0.0 mm 0.00 in0.0 mm 0.00 in0.0 mm
08:00 AM 42.1°F5.6°C 33.0°F0.6°C 70% 4.0 mph N6.4 kmh N 10.0 mph16.1 kmh 30.29 in1025.7 mb 0.00 in0.0 mm 0.00 in0.0 mm 0.00 in0.0 mm
08:05 AM 42.0°F5.6°C 32.9°F0.5°C 70% 5.0 mph N8.0 kmh N 10.0 mph16.1 kmh 30.30 in1026.1 mb 0.00 in0.0 mm 0.00 in0.0 mm 0.00 in0.0 mm
08:10 AM 42.0°F5.6°C 32.9°F0.5°C 70% 5.0 mph NNW8.0 kmh NNW 10.0 mph16.1 kmh 30.30 in1026.1 mb 0.00 in0.0 mm 0.00 in0.0 mm 0.00 in0.0 mm
08:15 AM 42.0°F5.6°C 32.9°F0.5°C 70% 5.0 mph NNW8.0 kmh NNW 10.0 mph16.1 kmh 30.30 in1026.1 mb 0.00 in0.0 mm 0.00 in0.0 mm 0.00 in0.0 mm
08:20 AM 42.1°F5.6°C 33.4°F0.8°C 71% 5.0 mph N8.0 kmh N 10.0 mph16.1 kmh 30.30 in1026.1 mb 0.00 in0.0 mm 0.00 in0.0 mm 0.00 in0.0 mm
08:25 AM 42.2°F5.7°C 33.5°F0.8°C 71% 5.0 mph N8.0 kmh N 12.0 mph19.3 kmh 30.30 in1026.1 mb 0.00 in0.0 mm 0.00 in0.0 mm 0.00 in0.0 mm
08:30 AM 42.3°F5.7°C 33.2°F0.7°C 70% 5.0 mph N8.0 kmh N 12.0 mph19.3 kmh 30.31 in1026.4 mb 0.00 in0.0 mm 0.00 in0.0 mm 0.00 in0.0 mm
08:35 AM 42.4°F5.8°C 33.3°F0.7°C 70% 5.0 mph N8.0 kmh N 11.0 mph17.7 kmh 30.31 in1026.4 mb 0.00 in0.0 mm 0.00 in0.0 mm 0.00 in0.0 mm
08:40 AM 42.5°F5.8°C 33.4°F0.8°C 70% 4.0 mph N6.4 kmh N 9.0 mph14.5 kmh 30.31 in1026.4 mb 0.00 in0.0 mm 0.00 in0.0 mm 0.00 in0.0 mm
08:45 AM 42.7°F5.9°C 33.2°F0.7°C 69% 5.0 mph NNW8.0 kmh NNW 10.0 mph16.1 kmh 30.31 in1026.4 mb 0.00 in0.0 mm 0.00 in0.0 mm 0.00 in0.0 mm
08:50 AM 42.9°F6.1°C 33.4°F0.8°C 69% 4.0 mph N6.4 kmh N 10.0 mph16.1 kmh 30.32 in1026.8 mb 0.00 in0.0 mm 0.00 in0.0 mm 0.00 in0.0 mm
08:55 AM 43.3°F6.3°C 33.8°F1.0°C 69% 4.0 mph N6.4 kmh N 10.0 mph16.1 kmh 30.32 in1026.8 mb 0.00 in0.0 mm 0.00 in0.0 mm 0.00 in0.0 mm
09:00 AM 43.8°F6.6°C 33.9°F1.1°C 68% 4.0 mph N6.4 kmh N 10.0 mph16.1 kmh 30.32 in1026.8 mb 0.00 in0.0 mm 0.00 in0.0 mm 0.00 in0.0 mm
09:05 AM 44.1°F6.7°C 32.7°F0.4°C 64% 6.0 mph N9.7 kmh N 14.0 mph22.5 kmh 30.32 in1026.8 mb 0.00 in0.0 mm 0.00 in0.0 mm 0.00 in0.0 mm
09:10 AM 44.4°F6.9°C 33.0°F0.6°C 64% 6.0 mph N9.7 kmh N 19.0 mph30.6 kmh 30.32 in1026.8 mb 0.00 in0.0 mm 0.00 in0.0 mm 0.00 in0.0 mm
09:15 AM 44.7°F7.1°C 32.9°F0.5°C 63% 6.0 mph N9.7 kmh N 19.0 mph30.6 kmh 30.33 in1027.1 mb 0.00 in0.0 mm 0.00 in0.0 mm 0.00 in0.0 mm
09:20 AM 45.0°F7.2°C 32.3°F0.2°C 61% 6.0 mph N9.7 kmh N 15.0 mph24.1 kmh 30.33 in1027.1 mb 0.00 in0.0 mm 0.00 in0.0 mm 0.00 in0.0 mm
09:25 AM 45.2°F7.3°C 32.5°F0.3°C 61% 7.0 mph NNW11.3 kmh NNW 15.0 mph24.1 kmh 30.33 in1027.1 mb 0.00 in0.0 mm 0.00 in0.0 mm 0.00 in0.0 mm
09:30 AM 45.5°F7.5°C 32.8°F0.4°C 61% 6.0 mph NNW9.7 kmh NNW 13.0 mph20.9 kmh 30.33 in1027.1 mb 0.00 in0.0 mm 0.00 in0.0 mm 0.00 in0.0 mm
09:35 AM 46.0°F7.8°C 33.3°F0.7°C 61% 5.0 mph N8.0 kmh N 13.0 mph20.9 kmh 30.34 in1027.4 mb 0.00 in0.0 mm 0.00 in0.0 mm 0.00 in0.0 mm
09:40 AM 46.5°F8.1°C 32.9°F0.5°C 59% 5.0 mph N8.0 kmh N 9.0 mph14.5 kmh 30.34 in1027.4 mb 0.00 in0.0 mm 0.00 in0.0 mm 0.00 in0.0 mm
09:45 AM 46.9°F8.3°C 32.9°F0.5°C 58% 5.0 mph N8.0 kmh N 11.0 mph17.7 kmh 30.34 in1027.4 mb 0.00 in0.0 mm 0.00 in0.0 mm 0.00 in0.0 mm
09:50 AM 47.0°F8.3°C 33.4°F0.8°C 59% 5.0 mph N8.0 kmh N 11.0 mph17.7 kmh 30.34 in1027.4 mb 0.00 in0.0 mm 0.00 in0.0 mm 0.00 in0.0 mm
09:55 AM 47.5°F8.6°C 33.9°F1.1°C 59% 5.0 mph N8.0 kmh N 10.0 mph16.1 kmh 30.34 in1027.4 mb 0.00 in0.0 mm 0.00 in0.0 mm 0.00 in0.0 mm
10:00 AM 47.7°F8.7°C 33.6°F0.9°C 58% 5.0 mph N8.0 kmh N 11.0 mph17.7 kmh 30.34 in1027.4 mb 0.00 in0.0 mm 0.00 in0.0 mm 0.00 in0.0 mm
10:05 AM 47.8°F8.8°C 33.3°F0.7°C 57% 6.0 mph N9.7 kmh N 11.0 mph17.7 kmh 30.34 in1027.4 mb 0.00 in0.0 mm 0.00 in0.0 mm 0.00 in0.0 mm
10:10 AM 48.0°F8.9°C 33.0°F0.6°C 56% 6.0 mph N9.7 kmh N 15.0 mph24.1 kmh 30.34 in1027.4 mb 0.00 in0.0 mm 0.00 in0.0 mm 0.00 in0.0 mm
10:15 AM 48.1°F8.9°C 33.1°F0.6°C 56% 7.0 mph N11.3 kmh N 15.0 mph24.1 kmh 30.35 in1027.8 mb 0.00 in0.0 mm 0.00 in0.0 mm 0.00 in0.0 mm
10:20 AM 48.4°F9.1°C 33.9°F1.1°C 57% 7.0 mph N11.3 kmh N 12.0 mph19.3 kmh 30.35 in1027.8 mb 0.00 in0.0 mm 0.00 in0.0 mm 0.00 in0.0 mm
10:25 AM 49.1°F9.5°C 33.6°F0.9°C 55% 6.0 mph N9.7 kmh N 12.0 mph19.3 kmh 30.35 in1027.8 mb 0.00 in0.0 mm 0.00 in0.0 mm 0.00 in0.0 mm
10:30 AM 49.3°F9.6°C 32.9°F0.5°C 53% 6.0 mph N9.7 kmh N 11.0 mph17.7 kmh 30.35 in1027.8 mb 0.00 in0.0 mm 0.00 in0.0 mm 0.00 in0.0 mm
10:35 AM 49.6°F9.8°C 33.6°F0.9°C 54% 6.0 mph N9.7 kmh N 11.0 mph17.7 kmh 30.35 in1027.8 mb 0.00 in0.0 mm 0.00 in0.0 mm 0.00 in0.0 mm
10:40 AM 50.3°F10.2°C 34.7°F1.5°C 55% 5.0 mph N8.0 kmh N 10.0 mph16.1 kmh 30.35 in1027.8 mb 0.00 in0.0 mm 0.00 in0.0 mm 0.00 in0.0 mm
10:45 AM 50.8°F10.4°C 34.3°F1.3°C 53% 4.0 mph N6.4 kmh N 11.0 mph17.7 kmh 30.35 in1027.8 mb 0.00 in0.0 mm 0.00 in0.0 mm 0.00 in0.0 mm
10:50 AM 51.1°F10.6°C 33.6°F0.9°C 51% 5.0 mph N8.0 kmh N 12.0 mph19.3 kmh 30.36 in1028.1 mb 0.00 in0.0 mm 0.00 in0.0 mm 0.00 in0.0 mm
10:55 AM 51.2°F10.7°C 32.7°F0.4°C 49% 6.0 mph N9.7 kmh N 12.0 mph19.3 kmh 30.36 in1028.1 mb 0.00 in0.0 mm 0.00 in0.0 mm 0.00 in0.0 mm
11:00 AM 51.6°F10.9°C 34.0°F1.1°C 51% 5.0 mph N8.0 kmh N 12.0 mph19.3 kmh 30.36 in1028.1 mb 0.00 in0.0 mm 0.00 in0.0 mm 0.00 in0.0 mm
11:05 AM 52.1°F11.2°C 33.5°F0.8°C 49% 5.0 mph NNW8.0 kmh NNW 11.0 mph17.7 kmh 30.36 in1028.1 mb 0.00 in0.0 mm 0.00 in0.0 mm 0.00 in0.0 mm
11:10 AM 52.3°F11.3°C 34.7°F1.5°C 51% 5.0 mph NNW8.0 kmh NNW 11.0 mph17.7 kmh 30.36 in1028.1 mb 0.00 in0.0 mm 0.00 in0.0 mm 0.00 in0.0 mm
11:15 AM 52.7°F11.5°C 35.1°F1.7°C 51% 4.0 mph NNW6.4 kmh NNW 10.0 mph16.1 kmh 30.36 in1028.1 mb 0.00 in0.0 mm 0.00 in0.0 mm 0.00 in0.0 mm
11:20 AM 53.0°F11.7°C 34.3°F1.3°C 49% 5.0 mph NNW8.0 kmh NNW 10.0 mph16.1 kmh 30.36 in1028.1 mb 0.00 in0.0 mm 0.00 in0.0 mm 0.00 in0.0 mm
11:25 AM 53.2°F11.8°C 35.0°F1.7°C 50% 5.0 mph N8.0 kmh N 8.0 mph12.9 kmh 30.36 in1028.1 mb 0.00 in0.0 mm 0.00 in0.0 mm 0.00 in0.0 mm
11:30 AM 53.7°F12.1°C 35.5°F1.9°C 50% 4.0 mph N6.4 kmh N 8.0 mph12.9 kmh 30.36 in1028.1 mb 0.00 in0.0 mm 0.00 in0.0 mm 0.00 in0.0 mm
11:35 AM 54.5°F12.5°C 35.7°F2.1°C 49% 4.0 mph N6.4 kmh N 8.0 mph12.9 kmh 30.36 in1028.1 mb 0.00 in0.0 mm 0.00 in0.0 mm 0.00 in0.0 mm
11:40 AM 55.0°F12.8°C 36.2°F2.3°C 49% 4.0 mph N6.4 kmh N 7.0 mph11.3 kmh 30.36 in1028.1 mb 0.00 in0.0 mm 0.00 in0.0 mm 0.00 in0.0 mm
11:45 AM 55.3°F12.9°C 35.9°F2.2°C 48% 4.0 mph N6.4 kmh N 8.0 mph12.9 kmh 30.36 in1028.1 mb 0.00 in0.0 mm 0.00 in0.0 mm 0.00 in0.0 mm
11:50 AM 55.7°F13.2°C 36.3°F2.4°C 48% 5.0 mph NNW8.0 kmh NNW 8.0 mph12.9 kmh 30.36 in1028.1 mb 0.00 in0.0 mm 0.00 in0.0 mm 0.00 in0.0 mm
11:55 AM 55.9°F13.3°C 35.4°F1.9°C 46% 4.0 mph NNW6.4 kmh NNW 9.0 mph14.5 kmh 30.36 in1028.1 mb 0.00 in0.0 mm 0.00 in0.0 mm 0.00 in0.0 mm
12:00 PM 56.1°F13.4°C 35.0°F1.7°C 45% 5.0 mph N8.0 kmh N 9.0 mph14.5 kmh 30.36 in1028.1 mb 0.00 in0.0 mm 0.00 in0.0 mm 0.00 in0.0 mm
12:05 PM 56.4°F13.6°C 34.7°F1.5°C 44% 4.0 mph N6.4 kmh N 9.0 mph14.5 kmh 30.36 in1028.1 mb 0.00 in0.0 mm 0.00 in0.0 mm 0.00 in0.0 mm
12:10 PM 56.7°F13.7°C 35.0°F1.7°C 44% 4.0 mph N6.4 kmh N 10.0 mph16.1 kmh 30.36 in1028.1 mb 0.00 in0.0 mm 0.00 in0.0 mm 0.00 in0.0 mm
12:15 PM 57.1°F13.9°C 35.4°F1.9°C 44% 4.0 mph N6.4 kmh N 10.0 mph16.1 kmh 30.36 in1028.1 mb 0.00 in0.0 mm 0.00 in0.0 mm 0.00 in0.0 mm
12:20 PM 57.7°F14.3°C 34.7°F1.5°C 42% 5.0 mph NNE8.0 kmh NNE 10.0 mph16.1 kmh 30.36 in1028.1 mb 0.00 in0.0 mm 0.00 in0.0 mm 0.00 in0.0 mm
12:25 PM 58.0°F14.4°C 34.4°F1.3°C 41% 5.0 mph NNE8.0 kmh NNE 10.0 mph16.1 kmh 30.36 in1028.1 mb 0.00 in0.0 mm 0.00 in0.0 mm 0.00 in0.0 mm
12:30 PM 58.5°F14.7°C 35.5°F1.9°C 42% 4.0 mph N6.4 kmh N 10.0 mph16.1 kmh 30.36 in1028.1 mb 0.00 in0.0 mm 0.00 in0.0 mm 0.00 in0.0 mm
12:35 PM 58.8°F14.9°C 35.1°F1.7°C 41% 5.0 mph N8.0 kmh N 10.0 mph16.1 kmh 30.36 in1028.1 mb 0.00 in0.0 mm 0.00 in0.0 mm 0.00 in0.0 mm
12:40 PM 58.9°F14.9°C 35.2°F1.8°C 41% 5.0 mph N8.0 kmh N 10.0 mph16.1 kmh 30.36 in1028.1 mb 0.00 in0.0 mm 0.00 in0.0 mm 0.00 in0.0 mm
12:45 PM 59.2°F15.1°C 34.9°F1.6°C 40% 4.0 mph N6.4 kmh N 8.0 mph12.9 kmh 30.35 in1027.8 mb 0.00 in0.0 mm 0.00 in0.0 mm 0.00 in0.0 mm
12:50 PM 59.8°F15.4°C 36.0°F2.2°C 41% 4.0 mph N6.4 kmh N 10.0 mph16.1 kmh 30.35 in1027.8 mb 0.00 in0.0 mm 0.00 in0.0 mm 0.00 in0.0 mm
12:55 PM 60.3°F15.7°C 36.5°F2.5°C 41% 4.0 mph N6.4 kmh N 10.0 mph16.1 kmh 30.35 in1027.8 mb 0.00 in0.0 mm 0.00 in0.0 mm 0.00 in0.0 mm
01:00 PM 60.4°F15.8°C 35.9°F2.2°C 40% 5.0 mph N8.0 kmh N 10.0 mph16.1 kmh 30.35 in1027.8 mb 0.00 in0.0 mm 0.00 in0.0 mm 0.00 in0.0 mm
01:05 PM 60.6°F15.9°C 36.8°F2.7°C 41% 5.0 mph N8.0 kmh N 10.0 mph16.1 kmh 30.35 in1027.8 mb 0.00 in0.0 mm 0.00 in0.0 mm 0.00 in0.0 mm
01:10 PM 60.6°F15.9°C 37.4°F3.0°C 42% 5.0 mph N8.0 kmh N 10.0 mph16.1 kmh 30.35 in1027.8 mb 0.00 in0.0 mm 0.00 in0.0 mm 0.00 in0.0 mm
01:15 PM 60.8°F16.0°C 37.5°F3.1°C 42% 5.0 mph NNW8.0 kmh NNW 10.0 mph16.1 kmh 30.34 in1027.4 mb 0.00 in0.0 mm 0.00 in0.0 mm 0.00 in0.0 mm
01:20 PM 60.9°F16.1°C 35.8°F2.1°C 39% 5.0 mph NNW8.0 kmh NNW 10.0 mph16.1 kmh 30.34 in1027.4 mb 0.00 in0.0 mm 0.00 in0.0 mm 0.00 in0.0 mm
01:25 PM 61.1°F16.2°C 35.9°F2.2°C 39% 5.0 mph N8.0 kmh N 10.0 mph16.1 kmh 30.34 in1027.4 mb 0.00 in0.0 mm 0.00 in0.0 mm 0.00 in0.0 mm
01:30 PM 61.4°F16.3°C 36.2°F2.3°C 39% 5.0 mph N8.0 kmh N 13.0 mph20.9 kmh 30.34 in1027.4 mb 0.00 in0.0 mm 0.00 in0.0 mm 0.00 in0.0 mm
01:35 PM 61.6°F16.4°C 35.7°F2.1°C 38% 5.0 mph N8.0 kmh N 13.0 mph20.9 kmh 30.34 in1027.4 mb 0.00 in0.0 mm 0.00 in0.0 mm 0.00 in0.0 mm
01:40 PM 61.5°F16.4°C 36.3°F2.4°C 39% 6.0 mph NNW9.7 kmh NNW 12.0 mph19.3 kmh 30.33 in1027.1 mb 0.00 in0.0 mm 0.00 in0.0 mm 0.00 in0.0 mm
01:45 PM 61.6°F16.4°C 36.4°F2.4°C 39% 5.0 mph NNW8.0 kmh NNW 12.0 mph19.3 kmh 30.33 in1027.1 mb 0.00 in0.0 mm 0.00 in0.0 mm 0.00 in0.0 mm
01:50 PM 61.5°F16.4°C 36.9°F2.7°C 40% 6.0 mph NW9.7 kmh NW 13.0 mph20.9 kmh 30.33 in1027.1 mb 0.00 in0.0 mm 0.00 in0.0 mm 0.00 in0.0 mm
01:55 PM 61.8°F16.6°C 36.6°F2.6°C 39% 6.0 mph NW9.7 kmh NW 13.0 mph20.9 kmh 30.33 in1027.1 mb 0.00 in0.0 mm 0.00 in0.0 mm 0.00 in0.0 mm
02:00 PM 62.1°F16.7°C 36.2°F2.3°C 38% 6.0 mph NNW9.7 kmh NNW 11.0 mph17.7 kmh 30.33 in1027.1 mb 0.00 in0.0 mm 0.00 in0.0 mm 0.00 in0.0 mm
02:05 PM 62.0°F16.7°C 35.4°F1.9°C 37% 6.0 mph NW9.7 kmh NW 12.0 mph19.3 kmh 30.32 in1026.8 mb 0.00 in0.0 mm 0.00 in0.0 mm 0.00 in0.0 mm
02:10 PM 62.1°F16.7°C 35.5°F1.9°C 37% 6.0 mph NNW9.7 kmh NNW 12.0 mph19.3 kmh 30.32 in1026.8 mb 0.00 in0.0 mm 0.00 in0.0 mm 0.00 in0.0 mm
02:15 PM 62.3°F16.8°C 35.0°F1.7°C 36% 5.0 mph NNW8.0 kmh NNW 10.0 mph16.1 kmh 30.31 in1026.4 mb 0.00 in0.0 mm 0.00 in0.0 mm 0.00 in0.0 mm
02:20 PM 62.4°F16.9°C 34.4°F1.3°C 35% 5.0 mph NW8.0 kmh NW 11.0 mph17.7 kmh 30.31 in1026.4 mb 0.00 in0.0 mm 0.00 in0.0 mm 0.00 in0.0 mm
02:25 PM 62.9°F17.2°C 35.5°F1.9°C 36% 5.0 mph NNW8.0 kmh NNW 11.0 mph17.7 kmh 30.31 in1026.4 mb 0.00 in0.0 mm 0.00 in0.0 mm 0.00 in0.0 mm
02:30 PM 63.3°F17.4°C 35.9°F2.2°C 36% 5.0 mph NW8.0 kmh NW 9.0 mph14.5 kmh 30.31 in1026.4 mb 0.00 in0.0 mm 0.00 in0.0 mm 0.00 in0.0 mm
02:35 PM 63.6°F17.6°C 36.1°F2.3°C 36% 5.0 mph NW8.0 kmh NW 13.0 mph20.9 kmh 30.31 in1026.4 mb 0.00 in0.0 mm 0.00 in0.0 mm 0.00 in0.0 mm
02:40 PM 63.6°F17.6°C 34.7°F1.5°C 34% 5.0 mph NNW8.0 kmh NNW 13.0 mph20.9 kmh 30.30 in1026.1 mb 0.00 in0.0 mm 0.00 in0.0 mm 0.00 in0.0 mm
02:45 PM 64.1°F17.8°C 34.4°F1.3°C 33% 5.0 mph NNW8.0 kmh NNW 10.0 mph16.1 kmh 30.30 in1026.1 mb 0.00 in0.0 mm 0.00 in0.0 mm 0.00 in0.0 mm
02:50 PM 64.4°F18.0°C 35.4°F1.9°C 34% 5.0 mph NNW8.0 kmh NNW 10.0 mph16.1 kmh 30.30 in1026.1 mb 0.00 in0.0 mm 0.00 in0.0 mm 0.00 in0.0 mm
02:55 PM 64.3°F17.9°C 36.0°F2.2°C 35% 5.0 mph NNW8.0 kmh NNW 11.0 mph17.7 kmh 30.30 in1026.1 mb 0.00 in0.0 mm 0.00 in0.0 mm 0.00 in0.0 mm
03:00 PM 64.5°F18.1°C 36.2°F2.3°C 35% 5.0 mph NNW8.0 kmh NNW 11.0 mph17.7 kmh 30.30 in1026.1 mb 0.00 in0.0 mm 0.00 in0.0 mm 0.00 in0.0 mm
03:05 PM 64.6°F18.1°C 34.1°F1.2°C 32% 5.0 mph NNW8.0 kmh NNW 12.0 mph19.3 kmh 30.29 in1025.7 mb 0.00 in0.0 mm 0.00 in0.0 mm 0.00 in0.0 mm
03:10 PM 65.0°F18.3°C 34.4°F1.3°C 32% 5.0 mph N8.0 kmh N 12.0 mph19.3 kmh 30.29 in1025.7 mb 0.00 in0.0 mm 0.00 in0.0 mm 0.00 in0.0 mm
03:15 PM 65.0°F18.3°C 35.2°F1.8°C 33% 5.0 mph N8.0 kmh N 9.0 mph14.5 kmh 30.29 in1025.7 mb 0.00 in0.0 mm 0.00 in0.0 mm 0.00 in0.0 mm
03:20 PM 65.0°F18.3°C 33.6°F0.9°C 31% 4.0 mph NNW6.4 kmh NNW 10.0 mph16.1 kmh 30.28 in1025.4 mb 0.00 in0.0 mm 0.00 in0.0 mm 0.00 in0.0 mm
03:25 PM 65.3°F18.5°C 36.2°F2.3°C 34% 4.0 mph NNW6.4 kmh NNW 10.0 mph16.1 kmh 30.28 in1025.4 mb 0.00 in0.0 mm 0.00 in0.0 mm 0.00 in0.0 mm
03:30 PM 65.4°F18.6°C 36.3°F2.4°C 34% 5.0 mph NNW8.0 kmh NNW 10.0 mph16.1 kmh 30.28 in1025.4 mb 0.00 in0.0 mm 0.00 in0.0 mm 0.00 in0.0 mm
03:35 PM 65.9°F18.8°C 36.0°F2.2°C 33% 4.0 mph NNW6.4 kmh NNW 10.0 mph16.1 kmh 30.28 in1025.4 mb 0.00 in0.0 mm 0.00 in0.0 mm 0.00 in0.0 mm
03:40 PM 66.1°F18.9°C 34.6°F1.4°C 31% 4.0 mph N6.4 kmh N 8.0 mph12.9 kmh 30.28 in1025.4 mb 0.00 in0.0 mm 0.00 in0.0 mm 0.00 in0.0 mm
03:45 PM 65.8°F18.8°C 35.1°F1.7°C 32% 5.0 mph NNW8.0 kmh NNW 11.0 mph17.7 kmh 30.27 in1025.1 mb 0.00 in0.0 mm 0.00 in0.0 mm 0.00 in0.0 mm
03:50 PM 65.8°F18.8°C 35.1°F1.7°C 32% 5.0 mph NNW8.0 kmh NNW 11.0 mph17.7 kmh 30.27 in1025.1 mb 0.00 in0.0 mm 0.00 in0.0 mm 0.00 in0.0 mm
03:55 PM 65.9°F18.8°C 35.2°F1.8°C 32% 5.0 mph N8.0 kmh N 9.0 mph14.5 kmh 30.27 in1025.1 mb 0.00 in0.0 mm 0.00 in0.0 mm 0.00 in0.0 mm
04:00 PM 66.4°F19.1°C 36.4°F2.4°C 33% 5.0 mph N8.0 kmh N 9.0 mph14.5 kmh 30.27 in1025.1 mb 0.00 in0.0 mm 0.00 in0.0 mm 0.00 in0.0 mm
04:05 PM 66.5°F19.2°C 36.5°F2.5°C 33% 4.0 mph N6.4 kmh N 9.0 mph14.5 kmh 30.27 in1025.1 mb 0.00 in0.0 mm 0.00 in0.0 mm 0.00 in0.0 mm
04:10 PM 66.8°F19.3°C 35.2°F1.8°C 31% 4.0 mph NNW6.4 kmh NNW 9.0 mph14.5 kmh 30.27 in1025.1 mb 0.00 in0.0 mm 0.00 in0.0 mm 0.00 in0.0 mm
04:15 PM 66.7°F19.3°C 35.1°F1.7°C 31% 5.0 mph N8.0 kmh N 11.0 mph17.7 kmh 30.27 in1025.1 mb 0.00 in0.0 mm 0.00 in0.0 mm 0.00 in0.0 mm
04:20 PM 66.5°F19.2°C 34.1°F1.2°C 30% 5.0 mph N8.0 kmh N 11.0 mph17.7 kmh 30.26 in1024.7 mb 0.00 in0.0 mm 0.00 in0.0 mm 0.00 in0.0 mm
04:25 PM 66.5°F19.2°C 34.1°F1.2°C 30% 4.0 mph N6.4 kmh N 9.0 mph14.5 kmh 30.27 in1025.1 mb 0.00 in0.0 mm 0.00 in0.0 mm 0.00 in0.0 mm
04:30 PM 66.5°F19.2°C 34.9°F1.6°C 31% 4.0 mph N6.4 kmh N 9.0 mph14.5 kmh 30.26 in1024.7 mb 0.00 in0.0 mm 0.00 in0.0 mm 0.00 in0.0 mm
04:35 PM 66.7°F19.3°C 35.1°F1.7°C 31% 4.0 mph N6.4 kmh N 9.0 mph14.5 kmh 30.26 in1024.7 mb 0.00 in0.0 mm 0.00 in0.0 mm 0.00 in0.0 mm
04:40 PM 66.6°F19.2°C 35.0°F1.7°C 31% 4.0 mph N6.4 kmh N 9.0 mph14.5 kmh 30.26 in1024.7 mb 0.00 in0.0 mm 0.00 in0.0 mm 0.00 in0.0 mm
04:45 PM 66.6°F19.2°C 35.0°F1.7°C 31% 4.0 mph N6.4 kmh N 9.0 mph14.5 kmh 30.26 in1024.7 mb 0.00 in0.0 mm 0.00 in0.0 mm 0.00 in0.0 mm
04:50 PM 66.9°F19.4°C 34.4°F1.3°C 30% 4.0 mph N6.4 kmh N 9.0 mph14.5 kmh 30.26 in1024.7 mb 0.00 in0.0 mm 0.00 in0.0 mm 0.00 in0.0 mm
04:55 PM 67.1°F19.5°C 32.9°F0.5°C 28% 4.0 mph NNE6.4 kmh NNE 9.0 mph14.5 kmh 30.26 in1024.7 mb 0.00 in0.0 mm 0.00 in0.0 mm 0.00 in0.0 mm
05:00 PM 66.8°F19.3°C 33.5°F0.8°C 29% 5.0 mph NNE8.0 kmh NNE 9.0 mph14.5 kmh 30.26 in1024.7 mb 0.00 in0.0 mm 0.00 in0.0 mm 0.00 in0.0 mm
05:05 PM 66.4°F19.1°C 34.0°F1.1°C 30% 5.0 mph NNE8.0 kmh NNE 12.0 mph19.3 kmh 30.26 in1024.7 mb 0.00 in0.0 mm 0.00 in0.0 mm 0.00 in0.0 mm
05:10 PM 66.2°F19.0°C 33.0°F0.6°C 29% 5.0 mph NNE8.0 kmh NNE 12.0 mph19.3 kmh 30.26 in1024.7 mb 0.00 in0.0 mm 0.00 in0.0 mm 0.00 in0.0 mm
05:15 PM 66.1°F18.9°C 32.9°F0.5°C 29% 5.0 mph NNE8.0 kmh NNE 9.0 mph14.5 kmh 30.26 in1024.7 mb 0.00 in0.0 mm 0.00 in0.0 mm 0.00 in0.0 mm
05:20 PM 65.9°F18.8°C 33.6°F0.9°C 30% 4.0 mph N6.4 kmh N 9.0 mph14.5 kmh 30.26 in1024.7 mb 0.00 in0.0 mm 0.00 in0.0 mm 0.00 in0.0 mm
05:25 PM 66.0°F18.9°C 33.7°F0.9°C 30% 4.0 mph N6.4 kmh N 8.0 mph12.9 kmh 30.26 in1024.7 mb 0.00 in0.0 mm 0.00 in0.0 mm 0.00 in0.0 mm
05:30 PM 65.8°F18.8°C 31.8°F-0.1°C 28% 5.0 mph NE8.0 kmh NE 11.0 mph17.7 kmh 30.26 in1024.7 mb 0.00 in0.0 mm 0.00 in0.0 mm 0.00 in0.0 mm
05:35 PM 65.7°F18.7°C 31.7°F-0.2°C 28% 4.0 mph NNE6.4 kmh NNE 11.0 mph17.7 kmh 30.26 in1024.7 mb 0.00 in0.0 mm 0.00 in0.0 mm 0.00 in0.0 mm
05:40 PM 65.3°F18.5°C 30.4°F-0.9°C 27% 4.0 mph NNE6.4 kmh NNE 10.0 mph16.1 kmh 30.26 in1024.7 mb 0.00 in0.0 mm 0.00 in0.0 mm 0.00 in0.0 mm
05:45 PM 65.3°F18.5°C 30.4°F-0.9°C 27% 5.0 mph NE8.0 kmh NE 10.0 mph16.1 kmh 30.27 in1025.1 mb 0.00 in0.0 mm 0.00 in0.0 mm 0.00 in0.0 mm
05:50 PM 65.3°F18.5°C 29.5°F-1.4°C 26% 5.0 mph NNE8.0 kmh NNE 11.0 mph17.7 kmh 30.27 in1025.1 mb 0.00 in0.0 mm 0.00 in0.0 mm 0.00 in0.0 mm
05:55 PM 64.9°F18.3°C 30.1°F-1.1°C 27% 4.0 mph NNE6.4 kmh NNE 11.0 mph17.7 kmh 30.27 in1025.1 mb 0.00 in0.0 mm 0.00 in0.0 mm 0.00 in0.0 mm
06:00 PM 64.6°F18.1°C 31.6°F-0.2°C 29% 4.0 mph NE6.4 kmh NE 8.0 mph12.9 kmh 30.27 in1025.1 mb 0.00 in0.0 mm 0.00 in0.0 mm 0.00 in0.0 mm
06:05 PM 64.3°F17.9°C 30.5°F-0.8°C 28% 4.0 mph NE6.4 kmh NE 8.0 mph12.9 kmh 30.27 in1025.1 mb 0.00 in0.0 mm 0.00 in0.0 mm 0.00 in0.0 mm
06:10 PM 63.8°F17.7°C 30.9°F-0.6°C 29% 4.0 mph NE6.4 kmh NE 8.0 mph12.9 kmh 30.27 in1025.1 mb 0.00 in0.0 mm 0.00 in0.0 mm 0.00 in0.0 mm
06:15 PM 63.6°F17.6°C 30.7°F-0.7°C 29% 4.0 mph NE6.4 kmh NE 8.0 mph12.9 kmh 30.27 in1025.1 mb 0.00 in0.0 mm 0.00 in0.0 mm 0.00 in0.0 mm
06:20 PM 63.4°F17.4°C 30.6°F-0.8°C 29% 3.0 mph NNE4.8 kmh NNE 8.0 mph12.9 kmh 30.28 in1025.4 mb 0.00 in0.0 mm 0.00 in0.0 mm 0.00 in0.0 mm
06:25 PM 62.7°F17.1°C 30.8°F-0.7°C 30% 3.0 mph NNE4.8 kmh NNE 7.0 mph11.3 kmh 30.28 in1025.4 mb 0.00 in0.0 mm 0.00 in0.0 mm 0.00 in0.0 mm
06:30 PM 62.6°F17.0°C 32.3°F0.2°C 32% 3.0 mph N4.8 kmh N 7.0 mph11.3 kmh 30.28 in1025.4 mb 0.00 in0.0 mm 0.00 in0.0 mm 0.00 in0.0 mm
06:35 PM 62.5°F16.9°C 31.4°F-0.3°C 31% 3.0 mph NNE4.8 kmh NNE 6.0 mph9.7 kmh 30.28 in1025.4 mb 0.00 in0.0 mm 0.00 in0.0 mm 0.00 in0.0 mm
06:40 PM 62.0°F16.7°C 31.0°F-0.6°C 31% 3.0 mph NE4.8 kmh NE 6.0 mph9.7 kmh 30.28 in1025.4 mb 0.00 in0.0 mm 0.00 in0.0 mm 0.00 in0.0 mm
06:45 PM 61.3°F16.3°C 31.2°F-0.4°C 32% 3.0 mph NNE4.8 kmh NNE 6.0 mph9.7 kmh 30.28 in1025.4 mb 0.00 in0.0 mm 0.00 in0.0 mm 0.00 in0.0 mm
06:50 PM 60.8°F16.0°C 31.5°F-0.3°C 33% 3.0 mph NNE4.8 kmh NNE 6.0 mph9.7 kmh 30.28 in1025.4 mb 0.00 in0.0 mm 0.00 in0.0 mm 0.00 in0.0 mm
06:55 PM 60.4°F15.8°C 31.9°F-0.1°C 34% 3.0 mph NNE4.8 kmh NNE 6.0 mph9.7 kmh 30.28 in1025.4 mb 0.00 in0.0 mm 0.00 in0.0 mm 0.00 in0.0 mm
07:00 PM 60.0°F15.6°C 31.5°F-0.3°C 34% 3.0 mph NNE4.8 kmh NNE 7.0 mph11.3 kmh 30.28 in1025.4 mb 0.00 in0.0 mm 0.00 in0.0 mm 0.00 in0.0 mm
07:05 PM 59.7°F15.4°C 31.3°F-0.4°C 34% 3.0 mph N4.8 kmh N 7.0 mph11.3 kmh 30.28 in1025.4 mb 0.00 in0.0 mm 0.00 in0.0 mm 0.00 in0.0 mm
07:10 PM 59.4°F15.2°C 31.0°F-0.6°C 34% 3.0 mph N4.8 kmh N 8.0 mph12.9 kmh 30.28 in1025.4 mb 0.00 in0.0 mm 0.00 in0.0 mm 0.00 in0.0 mm
07:15 PM 59.0°F15.0°C 31.4°F-0.3°C 35% 3.0 mph N4.8 kmh N 8.0 mph12.9 kmh 30.28 in1025.4 mb 0.00 in0.0 mm 0.00 in0.0 mm 0.00 in0.0 mm
07:20 PM 58.4°F14.7°C 32.2°F0.1°C 37% 2.0 mph NNE3.2 kmh NNE 5.0 mph8.0 kmh 30.28 in1025.4 mb 0.00 in0.0 mm 0.00 in0.0 mm 0.00 in0.0 mm
07:25 PM 57.9°F14.4°C 32.4°F0.2°C 38% 2.0 mph N3.2 kmh N 4.0 mph6.4 kmh 30.28 in1025.4 mb 0.00 in0.0 mm 0.00 in0.0 mm 0.00 in0.0 mm
07:30 PM 57.4°F14.1°C 32.6°F0.3°C 39% 2.0 mph N3.2 kmh N 4.0 mph6.4 kmh 30.29 in1025.7 mb 0.00 in0.0 mm 0.00 in0.0 mm 0.00 in0.0 mm
07:35 PM 56.9°F13.8°C 32.2°F0.1°C 39% 2.0 mph N3.2 kmh N 4.0 mph6.4 kmh 30.29 in1025.7 mb 0.00 in0.0 mm 0.00 in0.0 mm 0.00 in0.0 mm
07:40 PM 56.3°F13.5°C 31.6°F-0.2°C 39% 1.0 mph N1.6 kmh N 3.0 mph4.8 kmh 30.29 in1025.7 mb 0.00 in0.0 mm 0.00 in0.0 mm 0.00 in0.0 mm
07:45 PM 55.9°F13.3°C 32.5°F0.3°C 41% 1.0 mph N1.6 kmh N 3.0 mph4.8 kmh 30.29 in1025.7 mb 0.00 in0.0 mm 0.00 in0.0 mm 0.00 in0.0 mm
07:50 PM 55.5°F13.1°C 32.8°F0.4°C 42% 1.0 mph N1.6 kmh N 3.0 mph4.8 kmh 30.29 in1025.7 mb 0.00 in0.0 mm 0.00 in0.0 mm 0.00 in0.0 mm
07:55 PM 55.0°F12.8°C 33.5°F0.8°C 44% 1.0 mph N1.6 kmh N 3.0 mph4.8 kmh 30.29 in1025.7 mb 0.00 in0.0 mm 0.00 in0.0 mm 0.00 in0.0 mm
08:00 PM 54.5°F12.5°C 33.6°F0.9°C 45% 1.0 mph N1.6 kmh N 2.0 mph3.2 kmh 30.29 in1025.7 mb 0.00 in0.0 mm 0.00 in0.0 mm 0.00 in0.0 mm
08:05 PM 53.9°F12.2°C 33.6°F0.9°C 46% 1.0 mph N1.6 kmh N 2.0 mph3.2 kmh 30.29 in1025.7 mb 0.00 in0.0 mm 0.00 in0.0 mm 0.00 in0.0 mm
08:10 PM 53.3°F11.8°C 34.6°F1.4°C 49% 1.0 mph N1.6 kmh N 1.0 mph1.6 kmh 30.29 in1025.7 mb 0.00 in0.0 mm 0.00 in0.0 mm 0.00 in0.0 mm
08:15 PM 52.6°F11.4°C 34.5°F1.4°C 50% Calm Calm 1.0 mph1.6 kmh 30.29 in1025.7 mb 0.00 in0.0 mm 0.00 in0.0 mm 0.00 in0.0 mm
08:20 PM 51.9°F11.1°C 34.3°F1.3°C 51% Calm Calm 1.0 mph1.6 kmh 30.29 in1025.7 mb 0.00 in0.0 mm 0.00 in0.0 mm 0.00 in0.0 mm
08:25 PM 51.3°F10.7°C 34.3°F1.3°C 52% Calm Calm 1.0 mph1.6 kmh 30.29 in1025.7 mb 0.00 in0.0 mm 0.00 in0.0 mm 0.00 in0.0 mm
08:30 PM 50.8°F10.4°C 34.7°F1.5°C 54% Calm Calm 1.0 mph1.6 kmh 30.29 in1025.7 mb 0.00 in0.0 mm 0.00 in0.0 mm 0.00 in0.0 mm
08:35 PM 50.2°F10.1°C 34.6°F1.4°C 55% Calm Calm 1.0 mph1.6 kmh 30.29 in1025.7 mb 0.00 in0.0 mm 0.00 in0.0 mm 0.00 in0.0 mm
08:40 PM 49.7°F9.8°C 35.1°F1.7°C 57% Calm Calm 1.0 mph1.6 kmh 30.29 in1025.7 mb 0.00 in0.0 mm 0.00 in0.0 mm 0.00 in0.0 mm
08:45 PM 49.3°F9.6°C 35.1°F1.7°C 58% Calm Calm 1.0 mph1.6 kmh 30.30 in1026.1 mb 0.00 in0.0 mm 0.00 in0.0 mm 0.00 in0.0 mm
08:50 PM 48.9°F9.4°C 35.2°F1.8°C 59% Calm Calm 2.0 mph3.2 kmh 30.30 in1026.1 mb 0.00 in0.0 mm 0.00 in0.0 mm 0.00 in0.0 mm
08:55 PM 48.6°F9.2°C 35.7°F2.1°C 61% 1.0 mph N1.6 kmh N 2.0 mph3.2 kmh 30.30 in1026.1 mb 0.00 in0.0 mm 0.00 in0.0 mm 0.00 in0.0 mm
09:00 PM 48.3°F9.1°C 35.9°F2.2°C 62% 1.0 mph N1.6 kmh N 2.0 mph3.2 kmh 30.30 in1026.1 mb 0.00 in0.0 mm 0.00 in0.0 mm 0.00 in0.0 mm
09:05 PM 48.1°F8.9°C 35.7°F2.1°C 62% 1.0 mph N1.6 kmh N 2.0 mph3.2 kmh 30.30 in1026.1 mb 0.00 in0.0 mm 0.00 in0.0 mm 0.00 in0.0 mm
09:10 PM 47.8°F8.8°C 35.4°F1.9°C 62% 1.0 mph N1.6 kmh N 2.0 mph3.2 kmh 30.30 in1026.1 mb 0.00 in0.0 mm 0.00 in0.0 mm 0.00 in0.0 mm
09:15 PM 47.6°F8.7°C 35.2°F1.8°C 62% 1.0 mph N1.6 kmh N 2.0 mph3.2 kmh 30.31 in1026.4 mb 0.00 in0.0 mm 0.00 in0.0 mm 0.00 in0.0 mm
09:20 PM 47.4°F8.6°C 35.4°F1.9°C 63% 1.0 mph N1.6 kmh N 2.0 mph3.2 kmh 30.31 in1026.4 mb 0.00 in0.0 mm 0.00 in0.0 mm 0.00 in0.0 mm
09:25 PM 47.2°F8.4°C 36.0°F2.2°C 65% 1.0 mph N1.6 kmh N 2.0 mph3.2 kmh 30.31 in1026.4 mb 0.00 in0.0 mm 0.00 in0.0 mm 0.00 in0.0 mm
09:30 PM 47.0°F8.3°C 35.8°F2.1°C 65% 1.0 mph N1.6 kmh N 3.0 mph4.8 kmh 30.31 in1026.4 mb 0.00 in0.0 mm 0.00 in0.0 mm 0.00 in0.0 mm
09:35 PM 46.9°F8.3°C 35.7°F2.1°C 65% 1.0 mph N1.6 kmh N 3.0 mph4.8 kmh 30.32 in1026.8 mb 0.00 in0.0 mm 0.00 in0.0 mm 0.00 in0.0 mm
09:40 PM 46.8°F8.2°C 36.0°F2.2°C 66% 1.0 mph N1.6 kmh N 2.0 mph3.2 kmh 30.32 in1026.8 mb 0.00 in0.0 mm 0.00 in0.0 mm 0.00 in0.0 mm
09:45 PM 46.7°F8.2°C 35.9°F2.2°C 66% Calm Calm 2.0 mph3.2 kmh 30.32 in1026.8 mb 0.00 in0.0 mm 0.00 in0.0 mm 0.00 in0.0 mm
09:50 PM 46.6°F8.1°C 35.5°F1.9°C 65% 1.0 mph N1.6 kmh N 2.0 mph3.2 kmh 30.32 in1026.8 mb 0.00 in0.0 mm 0.00 in0.0 mm 0.00 in0.0 mm
09:55 PM 46.4°F8.0°C 35.3°F1.8°C 65% Calm Calm 1.0 mph1.6 kmh 30.33 in1027.1 mb 0.00 in0.0 mm 0.00 in0.0 mm 0.00 in0.0 mm
10:00 PM 46.2°F7.9°C 35.1°F1.7°C 65% Calm Calm 1.0 mph1.6 kmh 30.33 in1027.1 mb 0.00 in0.0 mm 0.00 in0.0 mm 0.00 in0.0 mm
10:05 PM 46.0°F7.8°C 35.7°F2.1°C 67% Calm Calm 1.0 mph1.6 kmh 30.33 in1027.1 mb 0.00 in0.0 mm 0.00 in0.0 mm 0.00 in0.0 mm
10:10 PM 45.8°F7.7°C 35.8°F2.1°C 68% Calm Calm -- 30.34 in1027.4 mb 0.00 in0.0 mm 0.00 in0.0 mm 0.00 in0.0 mm
10:15 PM 45.6°F7.6°C 36.0°F2.2°C 69% Calm Calm 2.0 mph3.2 kmh 30.34 in1027.4 mb 0.00 in0.0 mm 0.00 in0.0 mm 0.00 in0.0 mm
10:20 PM 45.6°F7.6°C 36.4°F2.4°C 70% 1.0 mph N1.6 kmh N 4.0 mph6.4 kmh 30.34 in1027.4 mb 0.00 in0.0 mm 0.00 in0.0 mm 0.00 in0.0 mm
10:25 PM 45.8°F7.7°C 35.8°F2.1°C 68% 2.0 mph NE3.2 kmh NE 4.0 mph6.4 kmh 30.35 in1027.8 mb 0.00 in0.0 mm 0.00 in0.0 mm 0.00 in0.0 mm
10:30 PM 45.9°F7.7°C 35.9°F2.2°C 68% 1.0 mph NE1.6 kmh NE 4.0 mph6.4 kmh 30.34 in1027.4 mb 0.00 in0.0 mm 0.00 in0.0 mm 0.00 in0.0 mm
10:35 PM 46.0°F7.8°C 36.4°F2.4°C 69% 1.0 mph NE1.6 kmh NE 3.0 mph4.8 kmh 30.34 in1027.4 mb 0.00 in0.0 mm 0.00 in0.0 mm 0.00 in0.0 mm
10:40 PM 46.0°F7.8°C 36.8°F2.7°C 70% Calm Calm 3.0 mph4.8 kmh 30.35 in1027.8 mb 0.00 in0.0 mm 0.00 in0.0 mm 0.00 in0.0 mm
10:45 PM 46.2°F7.9°C 37.7°F3.2°C 72% 1.0 mph NE1.6 kmh NE 2.0 mph3.2 kmh 30.35 in1027.8 mb 0.00 in0.0 mm 0.00 in0.0 mm 0.00 in0.0 mm
10:50 PM 46.5°F8.1°C 37.6°F3.1°C 71% 1.0 mph NE1.6 kmh NE 3.0 mph4.8 kmh 30.35 in1027.8 mb 0.00 in0.0 mm 0.00 in0.0 mm 0.00 in0.0 mm
10:55 PM 47.0°F8.3°C 37.4°F3.0°C 69% 1.0 mph ENE1.6 kmh ENE 4.0 mph6.4 kmh 30.35 in1027.8 mb 0.00 in0.0 mm 0.00 in0.0 mm 0.00 in0.0 mm
11:00 PM 47.4°F8.6°C 37.0°F2.8°C 67% 2.0 mph E3.2 kmh E 4.0 mph6.4 kmh 30.35 in1027.8 mb 0.00 in0.0 mm 0.00 in0.0 mm 0.00 in0.0 mm
11:05 PM 47.8°F8.8°C 37.4°F3.0°C 67% 2.0 mph ESE3.2 kmh ESE 5.0 mph8.0 kmh 30.36 in1028.1 mb 0.00 in0.0 mm 0.00 in0.0 mm 0.00 in0.0 mm
11:10 PM 48.0°F8.9°C 37.9°F3.3°C 68% 2.0 mph E3.2 kmh E 5.0 mph8.0 kmh 30.36 in1028.1 mb 0.00 in0.0 mm 0.00 in0.0 mm 0.00 in0.0 mm
11:15 PM 48.1°F8.9°C 38.4°F3.6°C 69% 2.0 mph E3.2 kmh E 5.0 mph8.0 kmh 30.36 in1028.1 mb 0.00 in0.0 mm 0.00 in0.0 mm 0.00 in0.0 mm
11:20 PM 48.3°F9.1°C 38.6°F3.7°C 69% 2.0 mph E3.2 kmh E 7.0 mph11.3 kmh 30.36 in1028.1 mb 0.00 in0.0 mm 0.00 in0.0 mm 0.00 in0.0 mm
11:25 PM 48.4°F9.1°C 39.1°F3.9°C 70% 3.0 mph E4.8 kmh E 8.0 mph12.9 kmh 30.36 in1028.1 mb 0.00 in0.0 mm 0.00 in0.0 mm 0.00 in0.0 mm
11:30 PM 48.5°F9.2°C 39.2°F4.0°C 70% 2.0 mph E3.2 kmh E 8.0 mph12.9 kmh 30.36 in1028.1 mb 0.00 in0.0 mm 0.00 in0.0 mm 0.00 in0.0 mm
11:35 PM 48.5°F9.2°C 39.2°F4.0°C 70% 2.0 mph ESE3.2 kmh ESE 5.0 mph8.0 kmh 30.36 in1028.1 mb 0.00 in0.0 mm 0.00 in0.0 mm 0.00 in0.0 mm
11:40 PM 48.5°F9.2°C 39.5°F4.2°C 71% 2.0 mph ESE3.2 kmh ESE 5.0 mph8.0 kmh 30.36 in1028.1 mb 0.00 in0.0 mm 0.00 in0.0 mm 0.00 in0.0 mm
11:45 PM 48.4°F9.1°C 39.4°F4.1°C 71% 1.0 mph E1.6 kmh E 5.0 mph8.0 kmh 30.35 in1027.8 mb 0.00 in0.0 mm 0.00 in0.0 mm 0.00 in0.0 mm
11:50 PM 48.4°F9.1°C 39.4°F4.1°C 71% 2.0 mph E3.2 kmh E 7.0 mph11.3 kmh 30.35 in1027.8 mb 0.00 in0.0 mm 0.00 in0.0 mm 0.00 in0.0 mm
11:55 PM 48.3°F9.1°C 39.3°F4.1°C 71% 2.0 mph E3.2 kmh E 7.0 mph11.3 kmh 30.35 in1027.8 mb 0.00 in0.0 mm 0.00 in0.0 mm 0.00 in0.0 mm